createdAt,value
2022-12-05T00:01:31.692Z,49.75
2022-12-05T00:04:00.872Z,57.17
2022-12-05T00:06:29.182Z,60.83
2022-12-05T00:08:56.592Z,65.68
2022-12-05T00:11:26.418Z,56.30
2022-12-05T00:13:54.430Z,56.75
2022-12-05T00:16:24.589Z,52.10
2022-12-05T00:18:51.492Z,53.27
2022-12-05T00:21:23.585Z,67.53
2022-12-05T00:23:51.223Z,59.63
2022-12-05T00:26:18.407Z,58.65
2022-12-05T00:28:45.139Z,54.10
2022-12-05T00:31:17.099Z,56.58
2022-12-05T00:33:44.221Z,51.90
2022-12-05T00:36:14.037Z,64.68
2022-12-05T00:38:41.450Z,50.65
2022-12-05T00:41:10.453Z,53.35
2022-12-05T00:43:37.387Z,58.33
2022-12-05T00:46:09.755Z,58.35
2022-12-05T00:48:36.482Z,54.88
2022-12-05T00:51:04.747Z,61.10
2022-12-05T00:53:31.702Z,57.75
2022-12-05T00:56:06.710Z,58.38
2022-12-05T00:58:33.479Z,60.40
2022-12-05T01:01:27.626Z,63.50
2022-12-05T01:03:57.233Z,54.70
2022-12-05T01:06:24.826Z,60.65
2022-12-05T01:08:53.999Z,67.40
2022-12-05T01:11:20.842Z,55.88
2022-12-05T01:13:47.508Z,55.05
2022-12-05T01:16:23.369Z,56.60
2022-12-05T01:18:50.451Z,53.88
2022-12-05T01:21:17.040Z,52.17
2022-12-05T01:23:43.570Z,60.15
2022-12-05T01:26:12.663Z,59.28
2022-12-05T01:28:39.894Z,62.15
2022-12-05T01:31:09.013Z,60.70
2022-12-05T01:33:36.332Z,54.50
2022-12-05T01:36:03.901Z,60.03
2022-12-05T01:38:30.482Z,62.40
2022-12-05T01:41:04.688Z,60.05
2022-12-05T01:43:31.425Z,53.22
2022-12-05T01:45:58.186Z,55.08
2022-12-05T01:48:31.769Z,60.05
2022-12-05T01:50:59.629Z,60.40
2022-12-05T01:53:26.567Z,59.72
2022-12-05T01:55:53.844Z,60.75
2022-12-05T01:58:21.721Z,61.83
2022-12-05T02:00:48.392Z,58.85
2022-12-05T02:03:18.750Z,51.05
2022-12-05T02:05:48.660Z,60.08
2022-12-05T02:08:15.173Z,46.97
2022-12-05T02:10:45.887Z,61.47
2022-12-05T02:13:35.199Z,61.45
2022-12-05T02:16:09.348Z,53.10
2022-12-05T02:18:55.098Z,50.70
2022-12-05T02:21:24.306Z,56.50
2022-12-05T02:24:28.847Z,51.55
2022-12-05T02:27:49.362Z,55.03
2022-12-05T02:30:23.388Z,58.13
2022-12-05T02:33:07.465Z,54.22
2022-12-05T02:35:39.807Z,51.03
2022-12-05T02:38:16.107Z,56.42
2022-12-05T02:41:02.613Z,52.80
2022-12-05T02:43:34.177Z,54.55
2022-12-05T02:46:05.643Z,55.58
2022-12-05T02:48:33.829Z,51.17
2022-12-05T02:51:01.894Z,60.63
2022-12-05T02:53:29.768Z,57.05
2022-12-05T02:55:57.416Z,54.15
2022-12-05T02:58:31.047Z,47.97
2022-12-05T03:00:58.373Z,54.10
2022-12-05T03:03:25.698Z,48.97
2022-12-05T03:06:00.842Z,55.85
2022-12-05T03:08:33.163Z,58.17
2022-12-05T03:11:00.981Z,55.28
2022-12-05T03:13:32.730Z,52.80
2022-12-05T03:16:02.457Z,55.42
2022-12-05T03:18:38.114Z,58.65
2022-12-05T03:21:31.649Z,55.47
2022-12-05T03:24:03.765Z,54.10
2022-12-05T03:27:03.273Z,53.75
2022-12-05T03:29:52.229Z,51.55
2022-12-05T03:36:38.266Z,54.53
2022-12-05T03:39:24.593Z,55.72
2022-12-05T03:42:02.093Z,50.92
2022-12-05T03:44:55.678Z,51.83
2022-12-05T03:47:30.990Z,51.03
2022-12-05T03:50:01.228Z,53.72
2022-12-05T03:52:45.786Z,63.67
2022-12-05T03:55:19.812Z,55.08
2022-12-05T03:57:54.567Z,49.97
2022-12-05T04:00:23.208Z,55.58
2022-12-05T04:02:58.037Z,56.33
2022-12-05T04:05:27.903Z,59.03
2022-12-05T04:08:06.653Z,49.22
2022-12-05T04:10:49.119Z,57.72
2022-12-05T04:13:41.166Z,61.92
2022-12-05T04:16:32.622Z,48.75
2022-12-05T04:19:15.753Z,55.97
2022-12-05T04:21:45.696Z,54.50
2022-12-05T04:24:40.891Z,63.63
2022-12-05T04:27:19.214Z,52.60
2022-12-05T04:30:01.182Z,56.25
2022-12-05T04:32:32.103Z,52.30
2022-12-05T04:35:05.251Z,48.53
2022-12-05T04:37:32.227Z,56.38
2022-12-05T04:40:03.716Z,58.80
2022-12-05T04:42:31.180Z,49.88
2022-12-05T04:45:02.193Z,53.47
2022-12-05T04:47:32.845Z,52.10
2022-12-05T04:50:00.630Z,53.22
2022-12-05T04:52:28.935Z,46.95
2022-12-05T04:55:10.211Z,51.22
2022-12-05T04:57:42.504Z,56.22
2022-12-05T05:00:09.397Z,52.72
2022-12-05T05:02:46.851Z,54.85
2022-12-05T05:05:16.070Z,49.63
2022-12-05T05:07:48.452Z,53.05
2022-12-05T05:10:16.592Z,54.38
2022-12-05T05:12:43.137Z,55.00
2022-12-05T05:15:09.902Z,52.25
2022-12-05T05:17:36.382Z,56.38
2022-12-05T05:20:23.777Z,54.35
2022-12-05T05:22:54.687Z,56.95
2022-12-05T05:25:21.682Z,58.10
2022-12-05T05:27:50.230Z,61.75
2022-12-05T05:30:17.893Z,61.22
2022-12-05T05:32:44.406Z,56.78
2022-12-05T05:35:11.675Z,62.78
2022-12-05T05:37:38.676Z,59.55
2022-12-05T05:40:11.117Z,64.88
2022-12-05T05:42:42.974Z,67.68
2022-12-05T05:45:10.515Z,58.85
2022-12-05T05:47:37.051Z,51.63
2022-12-05T05:50:04.187Z,64.82
2022-12-05T05:52:34.055Z,60.42
2022-12-05T05:55:01.193Z,63.47
2022-12-05T05:57:27.689Z,55.67
2022-12-05T05:59:54.196Z,64.78
2022-12-05T06:02:20.741Z,60.45
2022-12-05T06:04:48.347Z,70.35
2022-12-05T06:07:14.851Z,60.53
2022-12-05T06:09:41.346Z,56.13
2022-12-05T06:12:07.958Z,63.60
2022-12-05T06:14:34.478Z,57.97
2022-12-05T06:17:00.993Z,56.30
2022-12-05T06:19:27.611Z,71.30
2022-12-05T06:21:54.068Z,63.08
2022-12-05T06:24:20.617Z,57.22
2022-12-05T06:26:47.099Z,60.47
2022-12-05T06:29:13.604Z,59.58
2022-12-05T06:31:43.292Z,60.45
2022-12-05T06:34:09.826Z,67.40
2022-12-05T06:36:36.389Z,58.72
2022-12-05T06:39:03.340Z,61.17
2022-12-05T06:41:29.812Z,60.88
2022-12-05T06:44:01.965Z,51.15
2022-12-05T06:46:29.365Z,63.45
2022-12-05T06:48:57.463Z,61.28
2022-12-05T06:51:24.545Z,59.42
2022-12-05T06:53:51.241Z,66.88
2022-12-05T06:56:19.947Z,62.38
2022-12-05T06:58:50.150Z,64.03
2022-12-05T07:01:37.611Z,61.23
2022-12-05T07:04:05.881Z,63.83
2022-12-05T07:06:33.311Z,69.53
2022-12-05T07:08:59.922Z,69.55
2022-12-05T07:11:26.559Z,70.28
2022-12-05T07:13:53.144Z,70.63
2022-12-05T07:16:19.812Z,61.60
2022-12-05T07:18:46.482Z,61.88
2022-12-05T07:21:14.650Z,73.85
2022-12-05T07:23:42.685Z,71.53
2022-12-05T07:26:11.730Z,66.40
2022-12-05T07:28:38.247Z,67.88
2022-12-05T07:31:12.611Z,66.40
2022-12-05T07:33:39.338Z,67.90
2022-12-05T07:36:11.406Z,63.72
2022-12-05T07:38:38.227Z,59.85
2022-12-05T07:41:13.219Z,70.43
2022-12-05T07:43:40.735Z,61.95
2022-12-05T07:46:09.023Z,65.95
2022-12-05T07:48:35.574Z,62.17
2022-12-05T07:51:04.095Z,63.33
2022-12-05T07:53:31.237Z,68.45
2022-12-05T07:56:06.637Z,62.40
2022-12-05T07:58:33.997Z,66.03
2022-12-05T08:01:12.333Z,63.47
2022-12-05T08:03:39.188Z,64.95
2022-12-05T08:06:09.070Z,67.60
2022-12-05T08:08:35.660Z,51.50
2022-12-05T08:11:11.611Z,63.08
2022-12-05T08:13:38.358Z,60.33
2022-12-05T08:16:07.536Z,67.70
2022-12-05T08:18:34.257Z,63.75
2022-12-05T08:21:05.996Z,58.30
2022-12-05T08:23:33.177Z,55.40
2022-12-05T08:26:08.047Z,61.88
2022-12-05T08:28:34.896Z,61.33
2022-12-05T08:31:07.858Z,53.50
2022-12-05T08:33:34.711Z,61.97
2022-12-05T08:36:03.247Z,60.78
2022-12-05T08:38:29.781Z,65.50
2022-12-05T08:40:56.380Z,59.50
2022-12-05T08:43:22.858Z,63.58
2022-12-05T08:45:52.814Z,59.17
2022-12-05T08:48:23.481Z,59.22
2022-12-05T08:50:52.581Z,64.50
2022-12-05T08:53:19.019Z,51.30
2022-12-05T08:55:45.535Z,64.03
2022-12-05T08:58:12.586Z,56.53
2022-12-05T09:00:39.789Z,57.30
2022-12-05T09:03:06.660Z,49.00
2022-12-05T09:05:33.351Z,57.63
2022-12-05T09:07:59.986Z,53.30
2022-12-05T09:10:26.829Z,49.25
2022-12-05T09:12:53.515Z,53.67
2022-12-05T09:15:20.024Z,51.80
2022-12-05T09:17:46.491Z,51.83
2022-12-05T09:20:13.917Z,51.92
2022-12-05T09:22:41.525Z,52.80
2022-12-05T09:25:08.998Z,53.10
2022-12-05T09:27:35.531Z,54.80
2022-12-05T09:30:02.168Z,66.82
2022-12-05T09:32:28.675Z,53.13
2022-12-05T09:34:56.802Z,60.35
2022-12-05T09:37:38.669Z,57.28
2022-12-05T09:40:06.951Z,57.60
2022-12-05T09:42:54.381Z,54.58
2022-12-05T09:45:23.821Z,51.40
2022-12-05T09:47:58.055Z,54.22
2022-12-05T09:50:33.300Z,58.45
2022-12-05T09:52:59.693Z,59.00
2022-12-05T09:55:29.559Z,52.35
2022-12-05T09:57:59.628Z,53.08
2022-12-05T10:00:28.615Z,58.33
2022-12-05T10:03:12.468Z,54.67
2022-12-05T10:05:43.933Z,54.25
2022-12-05T10:08:56.835Z,47.05
2022-12-05T10:11:34.727Z,48.38
2022-12-05T10:14:04.273Z,52.33
2022-12-05T10:16:40.709Z,48.65
2022-12-05T10:19:19.236Z,46.75
2022-12-05T10:22:03.233Z,48.67
2022-12-05T10:24:36.230Z,45.25
2022-12-05T10:27:06.168Z,45.08
2022-12-05T10:29:45.616Z,51.67
2022-12-05T10:32:30.624Z,43.58
2022-12-05T10:35:13.934Z,43.40
2022-12-05T10:37:43.635Z,45.63
2022-12-05T10:40:12.467Z,49.35
2022-12-05T10:42:39.069Z,45.58
2022-12-05T10:45:09.060Z,44.42
2022-12-05T10:47:35.892Z,54.22
2022-12-05T10:50:07.333Z,43.92
2022-12-05T10:52:35.329Z,44.10
2022-12-05T10:55:04.362Z,43.55
2022-12-05T10:57:31.032Z,46.05
2022-12-05T10:59:57.782Z,40.22
2022-12-05T11:02:27.624Z,38.78
2022-12-05T11:04:55.065Z,40.92
2022-12-05T11:07:30.348Z,41.88
2022-12-05T11:09:58.247Z,39.30
2022-12-05T11:12:27.748Z,37.55
2022-12-05T11:14:57.645Z,38.40
2022-12-05T11:17:34.484Z,37.53
2022-12-05T11:20:02.315Z,41.70
2022-12-05T11:22:36.080Z,38.42
2022-12-05T11:25:36.389Z,43.40
2022-12-05T11:28:17.836Z,42.65
2022-12-05T11:31:12.016Z,40.40
2022-12-05T11:33:39.263Z,43.05
2022-12-05T11:36:19.878Z,47.38
2022-12-05T11:38:46.984Z,48.40
2022-12-05T11:41:59.545Z,51.28
2022-12-05T11:45:03.335Z,54.88
2022-12-05T11:47:40.609Z,54.53
2022-12-05T11:50:28.636Z,50.42
2022-12-05T11:53:05.203Z,42.05
2022-12-05T11:55:47.439Z,46.97
2022-12-05T11:58:34.626Z,38.40
2022-12-05T12:01:21.294Z,41.15
2022-12-05T12:04:25.211Z,42.42
2022-12-05T12:07:04.890Z,50.55
2022-12-05T12:10:02.641Z,47.55
2022-12-05T12:12:55.512Z,48.60
2022-12-05T12:15:31.112Z,41.25
2022-12-05T12:18:15.674Z,45.67
2022-12-05T12:21:18.479Z,42.58
2022-12-05T12:23:53.841Z,43.22
2022-12-05T12:26:58.073Z,42.80
2022-12-05T12:29:45.926Z,43.53
2022-12-05T12:32:19.434Z,46.40
2022-12-05T12:35:09.775Z,46.38
2022-12-05T12:38:03.617Z,46.88
2022-12-05T12:40:51.860Z,51.15
2022-12-05T12:43:53.366Z,48.65
2022-12-05T12:46:31.138Z,52.10
2022-12-05T12:49:13.513Z,60.35
2022-12-05T12:51:46.626Z,66.05
2022-12-05T12:57:55.576Z,64.75
2022-12-05T13:00:30.740Z,66.50
2022-12-05T13:03:08.340Z,61.13
2022-12-05T13:05:54.315Z,63.05
2022-12-05T13:08:31.045Z,62.83
2022-12-05T13:10:59.158Z,70.30
2022-12-05T13:13:30.493Z,67.20
2022-12-05T13:16:00.220Z,66.28
2022-12-05T13:18:27.393Z,74.97
2022-12-05T13:20:57.267Z,71.53
2022-12-05T13:23:32.432Z,66.57
2022-12-05T13:26:00.127Z,64.05
2022-12-05T13:28:46.771Z,74.18
2022-12-05T13:31:16.897Z,65.75
2022-12-05T13:33:49.302Z,64.93
2022-12-05T13:36:38.266Z,77.68
2022-12-05T13:39:25.548Z,72.30
2022-12-05T13:42:12.853Z,65.57
2022-12-05T13:45:05.368Z,67.90
2022-12-05T13:47:51.389Z,71.00
2022-12-05T13:50:29.103Z,60.95
2022-12-05T13:53:00.748Z,62.30
2022-12-05T13:55:36.763Z,65.07
2022-12-05T13:58:25.990Z,62.30
2022-12-05T14:01:27.811Z,67.00
2022-12-05T14:03:59.248Z,65.97
2022-12-05T14:09:02.423Z,61.28
2022-12-05T14:11:29.024Z,62.95
2022-12-05T14:13:59.150Z,62.92
2022-12-05T14:16:30.322Z,59.15
2022-12-05T14:19:37.899Z,73.28
2022-12-05T14:22:21.689Z,59.03
2022-12-05T14:25:27.438Z,71.70
2022-12-05T14:28:19.691Z,63.13
2022-12-05T14:31:14.424Z,59.03
2022-12-05T14:33:41.064Z,69.10
2022-12-05T14:36:13.064Z,66.72
2022-12-05T14:38:39.975Z,71.65
2022-12-05T14:41:16.354Z,64.03
2022-12-05T14:43:43.055Z,62.90
2022-12-05T14:46:23.013Z,74.43
2022-12-05T14:48:50.681Z,66.38
2022-12-05T14:51:43.767Z,69.50
2022-12-05T14:54:16.712Z,59.53
2022-12-05T14:56:46.272Z,52.20
2022-12-05T14:59:52.360Z,53.65
2022-12-05T15:02:31.102Z,54.42
2022-12-05T15:05:23.819Z,50.03
2022-12-05T15:07:51.032Z,59.47
2022-12-05T15:10:23.476Z,52.55
2022-12-05T15:13:17.644Z,48.88
2022-12-05T15:15:54.129Z,55.90
2022-12-05T15:18:27.598Z,56.35
2022-12-05T15:21:10.249Z,56.60
2022-12-05T15:23:54.692Z,57.83
2022-12-05T15:26:49.151Z,57.22
2022-12-05T15:29:32.767Z,54.10
2022-12-05T15:32:20.529Z,55.30
2022-12-05T15:35:01.654Z,58.67
2022-12-05T15:37:43.469Z,54.13
2022-12-05T15:40:14.074Z,51.80
2022-12-05T15:42:40.671Z,49.75
2022-12-05T15:45:16.128Z,51.20
2022-12-05T15:47:48.151Z,54.10
2022-12-05T15:50:20.366Z,46.13
2022-12-05T15:53:19.487Z,56.75
2022-12-05T15:55:48.656Z,59.70
2022-12-05T15:58:28.120Z,49.55
2022-12-05T16:01:00.462Z,58.13
2022-12-05T16:03:26.909Z,61.00
2022-12-05T16:06:02.834Z,58.20
2022-12-05T16:08:40.171Z,49.25
2022-12-05T16:11:08.816Z,52.55
2022-12-05T16:13:35.449Z,50.65
2022-12-05T16:16:02.309Z,51.40
2022-12-05T16:18:31.051Z,49.50
2022-12-05T16:20:58.089Z,50.35
2022-12-05T16:23:26.412Z,58.90
2022-12-05T16:25:53.061Z,53.75
2022-12-05T16:28:21.573Z,58.50
2022-12-05T16:30:59.561Z,58.85
2022-12-05T16:33:27.324Z,56.00
2022-12-05T16:35:53.956Z,53.15
2022-12-05T16:38:24.594Z,56.20
2022-12-05T16:41:05.924Z,57.63
2022-12-05T16:43:32.581Z,49.53
2022-12-05T16:46:08.130Z,58.92
2022-12-05T16:48:35.673Z,53.58
2022-12-05T16:51:22.210Z,49.15
2022-12-05T16:53:50.506Z,47.70
2022-12-05T16:56:21.121Z,55.42
2022-12-05T16:58:47.661Z,49.75
2022-12-05T17:01:20.305Z,47.33
2022-12-05T17:03:47.494Z,50.53
2022-12-05T17:06:14.834Z,44.53
2022-12-05T17:08:42.171Z,50.10
2022-12-05T17:11:17.628Z,46.20
2022-12-05T17:13:45.101Z,51.72
2022-12-05T17:16:11.958Z,46.35
2022-12-05T17:18:38.510Z,47.47
2022-12-05T17:21:05.153Z,52.30
2022-12-05T17:23:31.897Z,53.42
2022-12-05T17:25:59.016Z,59.15
2022-12-05T17:28:25.577Z,53.15
2022-12-05T17:30:52.083Z,57.72
2022-12-05T17:33:19.377Z,54.50
2022-12-05T17:35:46.084Z,58.75
2022-12-05T17:38:12.659Z,54.33
2022-12-05T17:40:39.333Z,54.72
2022-12-05T17:43:06.212Z,56.75
2022-12-05T17:45:33.354Z,67.90
2022-12-05T17:48:00.094Z,52.00
2022-12-05T17:50:26.699Z,49.58
2022-12-05T17:52:55.582Z,52.50
2022-12-05T17:55:24.775Z,49.75
2022-12-05T17:57:51.515Z,55.35
2022-12-05T18:00:18.848Z,53.72
2022-12-05T18:02:45.883Z,50.38
2022-12-05T18:05:13.691Z,50.08
2022-12-05T18:07:41.164Z,52.95
2022-12-05T18:10:12.887Z,49.15
2022-12-05T18:12:39.616Z,49.22
2022-12-05T18:15:06.484Z,61.50
2022-12-05T18:17:33.139Z,62.58
2022-12-05T18:19:59.645Z,51.30
2022-12-05T18:22:26.936Z,50.35
2022-12-05T18:24:54.265Z,57.58
2022-12-05T18:27:21.429Z,53.45
2022-12-05T18:29:48.574Z,57.58
2022-12-05T18:32:15.673Z,43.70
2022-12-05T18:34:42.365Z,47.65
2022-12-05T18:37:10.576Z,43.55
2022-12-05T18:39:39.848Z,50.25
2022-12-05T18:42:11.761Z,55.72
2022-12-05T18:44:41.462Z,48.72
2022-12-05T18:47:08.036Z,55.45
2022-12-05T18:49:34.551Z,48.08
2022-12-05T18:52:01.060Z,50.78
2022-12-05T18:54:27.564Z,54.45
2022-12-05T18:56:54.103Z,53.42
2022-12-05T18:59:21.725Z,50.45
2022-12-05T19:01:49.051Z,53.85
2022-12-05T19:04:18.531Z,54.40
2022-12-05T19:06:55.550Z,53.55
2022-12-05T19:09:24.288Z,52.28
2022-12-05T19:11:54.894Z,50.90
2022-12-05T19:14:21.547Z,47.85
2022-12-05T19:16:53.693Z,52.72
2022-12-05T19:19:24.614Z,54.95
2022-12-05T19:21:53.433Z,48.85
2022-12-05T19:24:19.992Z,47.15
2022-12-05T19:26:47.970Z,48.63
2022-12-05T19:29:15.702Z,58.83
2022-12-05T19:31:42.451Z,40.85
2022-12-05T19:34:09.180Z,43.03
2022-12-05T19:36:40.566Z,49.42
2022-12-05T19:39:18.720Z,50.00
2022-12-05T19:41:45.920Z,50.65
2022-12-05T19:44:12.759Z,46.22
2022-12-05T19:46:39.295Z,50.42
2022-12-05T19:49:08.286Z,49.47
2022-12-05T19:51:35.254Z,47.83
2022-12-05T19:54:02.937Z,46.80
2022-12-05T19:56:30.557Z,41.95
2022-12-05T19:58:58.248Z,45.22
2022-12-05T20:01:25.893Z,52.13
2022-12-05T20:04:00.815Z,51.80
2022-12-05T20:06:32.307Z,51.08
2022-12-05T20:08:59.856Z,51.88
2022-12-05T20:11:29.024Z,43.60
2022-12-05T20:13:57.634Z,50.55
2022-12-05T20:16:27.018Z,49.67
2022-12-05T20:19:00.328Z,49.03
2022-12-05T20:21:29.950Z,46.05
2022-12-05T20:23:58.629Z,43.08
2022-12-05T20:26:29.972Z,48.88
2022-12-05T20:28:58.938Z,64.85
2022-12-05T20:31:28.806Z,62.97
2022-12-05T20:33:56.215Z,47.85
2022-12-05T20:36:25.981Z,56.85
2022-12-05T20:38:58.328Z,53.57
2022-12-05T20:41:25.940Z,49.55
2022-12-05T20:43:58.499Z,54.55
2022-12-05T20:46:26.244Z,53.85
2022-12-05T20:48:53.769Z,50.47
2022-12-05T20:51:25.781Z,48.05
2022-12-05T20:53:55.043Z,41.45
2022-12-05T20:56:27.013Z,49.22
2022-12-05T20:58:56.379Z,59.60
2022-12-05T21:01:24.776Z,46.13
2022-12-05T21:03:52.962Z,49.20
2022-12-05T21:06:26.259Z,51.58
2022-12-05T21:08:54.544Z,54.92
2022-12-05T21:11:22.713Z,52.75
2022-12-05T21:13:49.729Z,54.10
2022-12-05T21:16:19.014Z,54.08
2022-12-05T21:18:46.582Z,56.78
2022-12-05T21:21:16.145Z,54.45
2022-12-05T21:23:44.673Z,51.85
2022-12-05T21:26:14.688Z,61.05
2022-12-05T21:28:41.994Z,54.60
2022-12-05T21:31:14.637Z,50.80
2022-12-05T21:33:42.469Z,48.22
2022-12-05T21:36:09.499Z,59.95
2022-12-05T21:38:36.381Z,73.45
2022-12-05T21:41:04.336Z,70.47
2022-12-05T21:43:31.598Z,62.95
2022-12-05T21:45:58.495Z,60.42
2022-12-05T21:48:25.806Z,56.20
2022-12-05T21:50:53.593Z,60.45
2022-12-05T21:53:21.157Z,59.13
2022-12-05T21:55:48.328Z,59.75
2022-12-05T21:58:15.148Z,61.00
2022-12-05T22:00:42.580Z,58.63
2022-12-05T22:03:13.817Z,57.78
2022-12-05T22:05:40.939Z,60.90
2022-12-05T22:08:08.041Z,60.25
2022-12-05T22:10:35.345Z,73.10
2022-12-05T22:13:03.927Z,62.17
2022-12-05T22:15:30.828Z,72.65
2022-12-05T22:17:57.501Z,64.50
2022-12-05T22:20:24.291Z,81.82
2022-12-05T22:22:50.989Z,73.95
2022-12-05T22:25:17.706Z,70.45
2022-12-05T22:27:44.507Z,76.25
2022-12-05T22:30:11.409Z,76.72
2022-12-05T22:32:38.081Z,71.47
2022-12-05T22:35:05.021Z,67.70
2022-12-05T22:37:31.823Z,69.20
2022-12-05T22:39:58.967Z,77.00
2022-12-05T22:42:26.879Z,84.18
2022-12-05T22:44:53.636Z,74.00
2022-12-05T22:47:20.310Z,86.90
2022-12-05T22:49:47.055Z,73.15
2022-12-05T22:52:13.772Z,86.15
2022-12-05T22:54:40.557Z,79.68
2022-12-05T22:57:07.283Z,76.57
2022-12-05T22:59:34.228Z,77.20
2022-12-05T23:02:00.949Z,77.70
2022-12-05T23:04:27.782Z,79.00
2022-12-05T23:06:54.659Z,90.32
2022-12-05T23:09:21.847Z,72.53
2022-12-05T23:11:51.503Z,87.78
2022-12-05T23:14:18.608Z,74.25
2022-12-05T23:16:50.246Z,85.70
2022-12-05T23:19:17.090Z,82.57
2022-12-05T23:21:44.196Z,85.18
2022-12-05T23:24:12.360Z,83.47
2022-12-05T23:26:43.965Z,93.60
2022-12-05T23:29:12.449Z,105.22
2022-12-05T23:31:39.686Z,104.90
2022-12-05T23:34:06.493Z,104.82
2022-12-05T23:36:34.391Z,94.13
2022-12-05T23:39:01.487Z,99.57
2022-12-05T23:41:28.374Z,105.97
2022-12-05T23:43:55.509Z,100.15
2022-12-05T23:46:27.358Z,95.18
2022-12-05T23:48:55.181Z,102.28
2022-12-05T23:51:27.377Z,118.95
2022-12-05T23:53:59.881Z,110.35
2022-12-05T23:56:29.202Z,122.35
2022-12-05T23:58:56.293Z,136.98
